sensor_id;sensor_type;location;lat;lon;timestamp;temperature;humidity
15676;DHT22;7938;47.666;9.434;2022-08-19T04:01:23;17.30;99.90
15676;DHT22;7938;47.666;9.434;2022-08-19T04:03:52;17.30;99.90
15676;DHT22;7938;47.666;9.434;2022-08-19T04:06:22;17.30;99.90
15676;DHT22;7938;47.666;9.434;2022-08-19T04:08:51;17.40;99.90
15676;DHT22;7938;47.666;9.434;2022-08-19T04:11:23;17.40;99.90
15676;DHT22;7938;47.666;9.434;2022-08-19T04:13:54;17.40;99.90
15676;DHT22;7938;47.666;9.434;2022-08-19T04:16:27;17.40;99.90
15676;DHT22;7938;47.666;9.434;2022-08-19T04:18:55;17.50;99.90
15676;DHT22;7938;47.666;9.434;2022-08-19T04:21:25;17.40;99.90
15676;DHT22;7938;47.666;9.434;2022-08-19T04:23:53;17.40;99.90
15676;DHT22;7938;47.666;9.434;2022-08-19T04:26:23;17.30;99.90
15676;DHT22;7938;47.666;9.434;2022-08-19T04:28:51;17.30;99.90
15676;DHT22;7938;47.666;9.434;2022-08-19T04:31:20;17.30;99.90
15676;DHT22;7938;47.666;9.434;2022-08-19T04:33:48;18.10;99.90
15676;DHT22;7938;47.666;9.434;2022-08-19T04:36:17;17.30;99.90
15676;DHT22;7938;47.666;9.434;2022-08-19T04:38:46;17.30;99.90
15676;DHT22;7938;47.666;9.434;2022-08-19T04:41:16;17.30;99.90
15676;DHT22;7938;47.666;9.434;2022-08-19T04:44:01;17.40;99.90
15676;DHT22;7938;47.666;9.434;2022-08-19T04:46:28;17.40;99.90
15676;DHT22;7938;47.666;9.434;2022-08-19T04:48:57;17.40;99.90
15676;DHT22;7938;47.666;9.434;2022-08-19T04:51:25;17.30;99.90
15676;DHT22;7938;47.666;9.434;2022-08-19T04:53:52;17.30;99.90
15676;DHT22;7938;47.666;9.434;2022-08-19T04:56:20;17.20;99.90
15676;DHT22;7938;47.666;9.434;2022-08-19T04:58:48;17.10;99.90
15676;DHT22;7938;47.666;9.434;2022-08-19T05:01:18;17.20;99.90
15676;DHT22;7938;47.666;9.434;2022-08-19T05:03:45;17.20;99.90
15676;DHT22;7938;47.666;9.434;2022-08-19T05:06:15;17.20;99.90
15676;DHT22;7938;47.666;9.434;2022-08-19T05:08:46;17.40;99.90
15676;DHT22;7938;47.666;9.434;2022-08-19T05:11:16;17.40;99.90
15676;DHT22;7938;47.666;9.434;2022-08-19T05:13:44;17.40;99.90
15676;DHT22;7938;47.666;9.434;2022-08-19T05:16:12;17.40;99.90
15676;DHT22;7938;47.666;9.434;2022-08-19T05:18:40;17.40;99.90
15676;DHT22;7938;47.666;9.434;2022-08-19T05:21:29;17.40;99.90
15676;DHT22;7938;47.666;9.434;2022-08-19T05:24:20;17.40;99.90
15676;DHT22;7938;47.666;9.434;2022-08-19T05:26:50;17.50;99.90
15676;DHT22;7938;47.666;9.434;2022-08-19T05:29:20;17.50;99.90
15676;DHT22;7938;47.666;9.434;2022-08-19T05:31:49;17.50;99.90
15676;DHT22;7938;47.666;9.434;2022-08-19T05:34:17;17.50;99.90
15676;DHT22;7938;47.666;9.434;2022-08-19T05:36:49;17.50;99.90
15676;DHT22;7938;47.666;9.434;2022-08-19T05:39:18;17.50;99.90
15676;DHT22;7938;47.666;9.434;2022-08-19T05:41:47;17.60;99.90
15676;DHT22;7938;47.666;9.434;2022-08-19T05:44:15;17.60;99.90
15676;DHT22;7938;47.666;9.434;2022-08-19T05:46:44;17.50;99.90
15676;DHT22;7938;47.666;9.434;2022-08-19T05:49:13;17.60;99.90
15676;DHT22;7938;47.666;9.434;2022-08-19T05:51:40;17.60;99.90
15676;DHT22;7938;47.666;9.434;2022-08-19T05:54:09;17.90;99.90
15676;DHT22;7938;47.666;9.434;2022-08-19T05:56:37;17.60;99.90
15676;DHT22;7938;47.666;9.434;2022-08-19T05:59:04;17.70;99.90
15676;DHT22;7938;47.666;9.434;2022-08-19T06:01:34;17.70;99.90
15676;DHT22;7938;47.666;9.434;2022-08-19T06:04:02;17.70;99.90
15676;DHT22;7938;47.666;9.434;2022-08-19T06:06:29;17.70;99.90
15676;DHT22;7938;47.666;9.434;2022-08-19T06:08:56;17.70;99.90
15676;DHT22;7938;47.666;9.434;2022-08-19T06:11:31;17.70;99.90
15676;DHT22;7938;47.666;9.434;2022-08-19T06:14:02;17.70;99.90
15676;DHT22;7938;47.666;9.434;2022-08-19T06:16:30;17.70;99.90
15676;DHT22;7938;47.666;9.434;2022-08-19T06:19:02;17.70;99.90
15676;DHT22;7938;47.666;9.434;2022-08-19T06:21:30;17.70;99.90
15676;DHT22;7938;47.666;9.434;2022-08-19T06:23:58;17.70;99.90
15676;DHT22;7938;47.666;9.434;2022-08-19T06:26:27;17.60;99.90
15676;DHT22;7938;47.666;9.434;2022-08-19T06:28:54;17.60;99.90
15676;DHT22;7938;47.666;9.434;2022-08-19T06:31:24;17.60;99.90
15676;DHT22;7938;47.666;9.434;2022-08-19T06:33:51;17.60;99.90
15676;DHT22;7938;47.666;9.434;2022-08-19T06:36:20;17.60;99.90
15676;DHT22;7938;47.666;9.434;2022-08-19T06:38:47;17.70;99.90
15676;DHT22;7938;47.666;9.434;2022-08-19T06:41:14;17.60;99.90
15676;DHT22;7938;47.666;9.434;2022-08-19T06:43:45;17.60;99.90
15676;DHT22;7938;47.666;9.434;2022-08-19T06:46:14;17.60;99.90
15676;DHT22;7938;47.666;9.434;2022-08-19T06:48:41;17.60;99.90
15676;DHT22;7938;47.666;9.434;2022-08-19T06:51:08;17.70;99.90
15676;DHT22;7938;47.666;9.434;2022-08-19T06:53:35;17.70;99.90
15676;DHT22;7938;47.666;9.434;2022-08-19T06:56:05;17.70;99.90
15676;DHT22;7938;47.666;9.434;2022-08-19T06:58:32;17.70;99.90
15676;DHT22;7938;47.666;9.434;2022-08-19T07:01:02;17.70;99.90
15676;DHT22;7938;47.666;9.434;2022-08-19T07:03:31;17.60;99.90
15676;DHT22;7938;47.666;9.434;2022-08-19T07:06:03;17.70;99.90
15676;DHT22;7938;47.666;9.434;2022-08-19T07:08:32;17.70;99.90
15676;DHT22;7938;47.666;9.434;2022-08-19T07:10:59;17.70;99.90
15676;DHT22;7938;47.666;9.434;2022-08-19T07:13:26;17.70;99.90
15676;DHT22;7938;47.666;9.434;2022-08-19T07:15:56;17.70;99.90
15676;DHT22;7938;47.666;9.434;2022-08-19T07:18:24;17.70;99.90
15676;DHT22;7938;47.666;9.434;2022-08-19T07:21:03;17.70;99.90
15676;DHT22;7938;47.666;9.434;2022-08-19T07:23:30;17.70;99.90
15676;DHT22;7938;47.666;9.434;2022-08-19T07:25:57;17.80;99.90
15676;DHT22;7938;47.666;9.434;2022-08-19T07:28:24;17.70;99.90
15676;DHT22;7938;47.666;9.434;2022-08-19T07:30:51;17.70;99.90
15676;DHT22;7938;47.666;9.434;2022-08-19T07:33:18;17.70;99.90
15676;DHT22;7938;47.666;9.434;2022-08-19T07:35:47;17.70;99.90
15676;DHT22;7938;47.666;9.434;2022-08-19T07:38:15;18.40;99.90
15676;DHT22;7938;47.666;9.434;2022-08-19T07:40:43;17.80;99.90
15676;DHT22;7938;47.666;9.434;2022-08-19T07:43:11;17.80;99.90
15676;DHT22;7938;47.666;9.434;2022-08-19T07:45:38;17.80;99.90
15676;DHT22;7938;47.666;9.434;2022-08-19T07:48:05;17.80;99.90
15676;DHT22;7938;47.666;9.434;2022-08-19T07:50:32;17.80;99.90
15676;DHT22;7938;47.666;9.434;2022-08-19T07:53:00;17.80;99.90
15676;DHT22;7938;47.666;9.434;2022-08-19T07:55:27;17.80;99.90
15676;DHT22;7938;47.666;9.434;2022-08-19T07:57:54;17.70;99.90
15676;DHT22;7938;47.666;9.434;2022-08-19T08:00:21;17.80;99.90
15676;DHT22;7938;47.666;9.434;2022-08-19T08:02:48;17.80;99.90
15676;DHT22;7938;47.666;9.434;2022-08-19T08:05:15;17.80;99.90
15676;DHT22;7938;47.666;9.434;2022-08-19T08:08:01;17.80;99.90
15676;DHT22;7938;47.666;9.434;2022-08-19T08:10:46;17.80;99.90
15676;DHT22;7938;47.666;9.434;2022-08-19T08:13:13;17.90;99.90
15676;DHT22;7938;47.666;9.434;2022-08-19T08:15:40;17.90;99.90
15676;DHT22;7938;47.666;9.434;2022-08-19T08:18:07;18.00;99.90
15676;DHT22;7938;47.666;9.434;2022-08-19T08:20:34;18.20;99.90
15676;DHT22;7938;47.666;9.434;2022-08-19T08:23:02;18.20;99.90
15676;DHT22;7938;47.666;9.434;2022-08-19T08:25:47;18.20;99.90
15676;DHT22;7938;47.666;9.434;2022-08-19T08:28:14;18.30;99.90
15676;DHT22;7938;47.666;9.434;2022-08-19T08:30:42;18.40;99.90
15676;DHT22;7938;47.666;9.434;2022-08-19T08:33:11;18.40;99.90
15676;DHT22;7938;47.666;9.434;2022-08-19T08:35:39;18.40;99.90
15676;DHT22;7938;47.666;9.434;2022-08-19T08:38:08;18.40;99.90
15676;DHT22;7938;47.666;9.434;2022-08-19T08:40:39;18.40;99.90
15676;DHT22;7938;47.666;9.434;2022-08-19T08:43:18;18.30;99.90
15676;DHT22;7938;47.666;9.434;2022-08-19T08:45:50;18.30;99.90
15676;DHT22;7938;47.666;9.434;2022-08-19T08:48:23;18.20;99.90
15676;DHT22;7938;47.666;9.434;2022-08-19T08:50:53;18.20;99.90
15676;DHT22;7938;47.666;9.434;2022-08-19T08:53:23;18.20;99.90
15676;DHT22;7938;47.666;9.434;2022-08-19T08:55:51;18.10;99.90
15676;DHT22;7938;47.666;9.434;2022-08-19T08:58:25;18.10;99.90
15676;DHT22;7938;47.666;9.434;2022-08-19T09:00:54;18.00;99.90
15676;DHT22;7938;47.666;9.434;2022-08-19T09:03:23;18.00;99.90
15676;DHT22;7938;47.666;9.434;2022-08-19T09:05:57;18.10;99.90
15676;DHT22;7938;47.666;9.434;2022-08-19T09:08:37;18.10;99.90
15676;DHT22;7938;47.666;9.434;2022-08-19T09:11:08;18.10;99.90
15676;DHT22;7938;47.666;9.434;2022-08-19T09:13:42;18.00;99.90
15676;DHT22;7938;47.666;9.434;2022-08-19T09:16:14;18.00;99.90
15676;DHT22;7938;47.666;9.434;2022-08-19T09:18:44;18.00;99.90
15676;DHT22;7938;47.666;9.434;2022-08-19T09:21:13;17.90;99.90
15676;DHT22;7938;47.666;9.434;2022-08-19T09:23:41;17.90;99.90
15676;DHT22;7938;47.666;9.434;2022-08-19T09:26:13;17.90;99.90
15676;DHT22;7938;47.666;9.434;2022-08-19T09:28:41;17.90;99.90
15676;DHT22;7938;47.666;9.434;2022-08-19T09:31:09;17.90;99.90
15676;DHT22;7938;47.666;9.434;2022-08-19T09:33:36;17.90;99.90
15676;DHT22;7938;47.666;9.434;2022-08-19T09:36:05;17.90;99.90
15676;DHT22;7938;47.666;9.434;2022-08-19T09:38:33;17.80;99.90
15676;DHT22;7938;47.666;9.434;2022-08-19T09:41:07;17.80;99.90
15676;DHT22;7938;47.666;9.434;2022-08-19T09:43:34;17.80;99.90
15676;DHT22;7938;47.666;9.434;2022-08-19T09:46:02;17.80;99.90
15676;DHT22;7938;47.666;9.434;2022-08-19T09:48:31;17.80;99.90
15676;DHT22;7938;47.666;9.434;2022-08-19T09:51:03;17.60;99.90
15676;DHT22;7938;47.666;9.434;2022-08-19T09:53:30;17.70;99.90
15676;DHT22;7938;47.666;9.434;2022-08-19T09:55:57;17.60;99.90
15676;DHT22;7938;47.666;9.434;2022-08-19T09:58:25;17.60;99.90
15676;DHT22;7938;47.666;9.434;2022-08-19T10:00:53;17.60;99.90
15676;DHT22;7938;47.666;9.434;2022-08-19T10:03:20;17.60;99.90
15676;DHT22;7938;47.666;9.434;2022-08-19T10:05:47;17.60;99.90
15676;DHT22;7938;47.666;9.434;2022-08-19T10:08:20;17.60;99.90
15676;DHT22;7938;47.666;9.434;2022-08-19T10:10:49;17.50;99.90
15676;DHT22;7938;47.666;9.434;2022-08-19T10:13:17;17.50;99.90
15676;DHT22;7938;47.666;9.434;2022-08-19T10:15:47;17.50;99.90
15676;DHT22;7938;47.666;9.434;2022-08-19T10:18:16;17.50;99.90
15676;DHT22;7938;47.666;9.434;2022-08-19T10:20:44;17.50;99.90
15676;DHT22;7938;47.666;9.434;2022-08-19T10:23:11;17.50;99.90
15676;DHT22;7938;47.666;9.434;2022-08-19T10:25:38;17.50;99.90
15676;DHT22;7938;47.666;9.434;2022-08-19T10:28:05;17.50;99.90
15676;DHT22;7938;47.666;9.434;2022-08-19T10:30:32;17.50;99.90
15676;DHT22;7938;47.666;9.434;2022-08-19T10:33:01;17.50;99.90
15676;DHT22;7938;47.666;9.434;2022-08-19T10:35:27;17.40;99.90
15676;DHT22;7938;47.666;9.434;2022-08-19T10:37:55;17.40;99.90
15676;DHT22;7938;47.666;9.434;2022-08-19T10:40:25;17.40;99.90
15676;DHT22;7938;47.666;9.434;2022-08-19T10:42:52;17.40;99.90
15676;DHT22;7938;47.666;9.434;2022-08-19T10:45:19;17.40;99.90
15676;DHT22;7938;47.666;9.434;2022-08-19T10:47:47;17.50;99.90
15676;DHT22;7938;47.666;9.434;2022-08-19T10:50:16;17.50;99.90
15676;DHT22;7938;47.666;9.434;2022-08-19T10:53:03;17.50;99.90
15676;DHT22;7938;47.666;9.434;2022-08-19T10:55:31;17.50;99.90
15676;DHT22;7938;47.666;9.434;2022-08-19T10:58:17;17.60;99.90
15676;DHT22;7938;47.666;9.434;2022-08-19T11:00:52;17.60;99.90
15676;DHT22;7938;47.666;9.434;2022-08-19T11:03:20;17.60;99.90
15676;DHT22;7938;47.666;9.434;2022-08-19T11:05:57;17.60;99.90
15676;DHT22;7938;47.666;9.434;2022-08-19T11:08:24;17.60;99.90
15676;DHT22;7938;47.666;9.434;2022-08-19T11:10:53;17.60;99.90
15676;DHT22;7938;47.666;9.434;2022-08-19T11:13:20;17.60;99.90
15676;DHT22;7938;47.666;9.434;2022-08-19T11:15:56;17.60;99.90
15676;DHT22;7938;47.666;9.434;2022-08-19T11:18:23;17.60;99.90
15676;DHT22;7938;47.666;9.434;2022-08-19T11:20:51;17.60;99.90
15676;DHT22;7938;47.666;9.434;2022-08-19T11:23:18;17.60;99.90
15676;DHT22;7938;47.666;9.434;2022-08-19T11:25:45;17.60;99.90
15676;DHT22;7938;47.666;9.434;2022-08-19T11:28:12;17.60;99.90
15676;DHT22;7938;47.666;9.434;2022-08-19T11:30:39;17.60;99.90
15676;DHT22;7938;47.666;9.434;2022-08-19T11:33:09;17.60;99.90
15676;DHT22;7938;47.666;9.434;2022-08-19T11:35:42;17.50;99.90
15676;DHT22;7938;47.666;9.434;2022-08-19T11:38:11;17.60;99.90
15676;DHT22;7938;47.666;9.434;2022-08-19T11:40:38;17.60;99.90
15676;DHT22;7938;47.666;9.434;2022-08-19T11:43:08;17.60;99.90
15676;DHT22;7938;47.666;9.434;2022-08-19T11:45:36;17.60;99.90
15676;DHT22;7938;47.666;9.434;2022-08-19T11:48:03;17.70;99.90
15676;DHT22;7938;47.666;9.434;2022-08-19T11:50:30;17.60;99.90
15676;DHT22;7938;47.666;9.434;2022-08-19T11:52:57;17.60;99.90
15676;DHT22;7938;47.666;9.434;2022-08-19T11:55:26;17.60;99.90
15676;DHT22;7938;47.666;9.434;2022-08-19T11:57:53;17.60;99.90
15676;DHT22;7938;47.666;9.434;2022-08-19T12:00:20;17.70;99.90
15676;DHT22;7938;47.666;9.434;2022-08-19T12:02:47;17.70;99.90
15676;DHT22;7938;47.666;9.434;2022-08-19T12:05:13;17.70;99.90
15676;DHT22;7938;47.666;9.434;2022-08-19T12:07:40;17.70;99.90
15676;DHT22;7938;47.666;9.434;2022-08-19T12:10:09;17.80;99.90
15676;DHT22;7938;47.666;9.434;2022-08-19T12:12:37;17.80;99.90
15676;DHT22;7938;47.666;9.434;2022-08-19T12:15:08;17.80;99.90
15676;DHT22;7938;47.666;9.434;2022-08-19T12:17:36;17.80;99.90
15676;DHT22;7938;47.666;9.434;2022-08-19T12:20:04;17.90;99.90
15676;DHT22;7938;47.666;9.434;2022-08-19T12:22:32;17.90;99.90
15676;DHT22;7938;47.666;9.434;2022-08-19T12:25:01;17.90;99.90
15676;DHT22;7938;47.666;9.434;2022-08-19T12:27:27;17.90;99.90
15676;DHT22;7938;47.666;9.434;2022-08-19T12:29:58;17.90;99.90
15676;DHT22;7938;47.666;9.434;2022-08-19T12:32:27;17.90;99.90
15676;DHT22;7938;47.666;9.434;2022-08-19T12:34:55;17.80;99.90
15676;DHT22;7938;47.666;9.434;2022-08-19T12:37:21;17.80;99.90
15676;DHT22;7938;47.666;9.434;2022-08-19T12:39:48;17.80;99.90
15676;DHT22;7938;47.666;9.434;2022-08-19T12:42:15;17.70;99.90
15676;DHT22;7938;47.666;9.434;2022-08-19T12:44:44;17.70;99.90
15676;DHT22;7938;47.666;9.434;2022-08-19T12:47:13;17.90;99.90
15676;DHT22;7938;47.666;9.434;2022-08-19T12:49:40;17.90;99.90
15676;DHT22;7938;47.666;9.434;2022-08-19T12:52:08;17.90;99.90
15676;DHT22;7938;47.666;9.434;2022-08-19T12:54:36;17.90;99.90
15676;DHT22;7938;47.666;9.434;2022-08-19T12:57:05;18.00;99.90
15676;DHT22;7938;47.666;9.434;2022-08-19T12:59:33;18.00;99.90
15676;DHT22;7938;47.666;9.434;2022-08-19T13:02:02;17.90;99.90
15676;DHT22;7938;47.666;9.434;2022-08-19T13:04:33;18.00;99.90
15676;DHT22;7938;47.666;9.434;2022-08-19T13:07:02;18.00;99.90
15676;DHT22;7938;47.666;9.434;2022-08-19T13:09:29;17.90;99.90
15676;DHT22;7938;47.666;9.434;2022-08-19T13:11:56;17.90;99.90
15676;DHT22;7938;47.666;9.434;2022-08-19T13:14:23;17.90;99.90
15676;DHT22;7938;47.666;9.434;2022-08-19T13:16:50;18.00;99.90
15676;DHT22;7938;47.666;9.434;2022-08-19T13:19:17;18.00;99.90
15676;DHT22;7938;47.666;9.434;2022-08-19T13:21:49;18.10;99.90
15676;DHT22;7938;47.666;9.434;2022-08-19T13:24:17;18.20;99.90
15676;DHT22;7938;47.666;9.434;2022-08-19T13:26:44;18.30;99.90
15676;DHT22;7938;47.666;9.434;2022-08-19T13:29:11;18.20;99.90
15676;DHT22;7938;47.666;9.434;2022-08-19T13:31:56;18.20;99.90
15676;DHT22;7938;47.666;9.434;2022-08-19T13:34:40;18.20;99.90
15676;DHT22;7938;47.666;9.434;2022-08-19T13:37:08;18.20;99.90
15676;DHT22;7938;47.666;9.434;2022-08-19T13:39:36;18.20;99.90
15676;DHT22;7938;47.666;9.434;2022-08-19T13:42:04;18.20;99.90
15676;DHT22;7938;47.666;9.434;2022-08-19T13:44:31;18.20;99.90
15676;DHT22;7938;47.666;9.434;2022-08-19T13:47:01;18.30;99.90
15676;DHT22;7938;47.666;9.434;2022-08-19T13:49:31;18.30;99.90
15676;DHT22;7938;47.666;9.434;2022-08-19T13:51:58;18.30;99.90
15676;DHT22;7938;47.666;9.434;2022-08-19T13:54:26;18.30;99.90
15676;DHT22;7938;47.666;9.434;2022-08-19T13:56:53;18.30;99.90
15676;DHT22;7938;47.666;9.434;2022-08-19T13:59:20;18.20;99.90
15676;DHT22;7938;47.666;9.434;2022-08-19T14:01:50;18.30;99.90
15676;DHT22;7938;47.666;9.434;2022-08-19T14:04:17;18.30;99.90
15676;DHT22;7938;47.666;9.434;2022-08-19T14:06:44;18.30;99.90
15676;DHT22;7938;47.666;9.434;2022-08-19T14:09:11;18.20;99.90
15676;DHT22;7938;47.666;9.434;2022-08-19T14:11:39;18.20;99.90
15676;DHT22;7938;47.666;9.434;2022-08-19T14:14:06;18.20;99.90
15676;DHT22;7938;47.666;9.434;2022-08-19T14:16:37;18.10;99.90
15676;DHT22;7938;47.666;9.434;2022-08-19T14:19:04;18.10;99.90
15676;DHT22;7938;47.666;9.434;2022-08-19T14:21:33;18.10;99.90
15676;DHT22;7938;47.666;9.434;2022-08-19T14:24:00;18.20;99.90
15676;DHT22;7938;47.666;9.434;2022-08-19T14:26:27;18.10;99.90
15676;DHT22;7938;47.666;9.434;2022-08-19T14:28:55;18.10;99.90
15676;DHT22;7938;47.666;9.434;2022-08-19T14:31:22;18.00;99.90
15676;DHT22;7938;47.666;9.434;2022-08-19T14:33:50;18.10;99.90
15676;DHT22;7938;47.666;9.434;2022-08-19T14:36:18;18.00;99.90
15676;DHT22;7938;47.666;9.434;2022-08-19T14:38:46;18.10;99.90
15676;DHT22;7938;47.666;9.434;2022-08-19T14:41:16;18.10;99.90
15676;DHT22;7938;47.666;9.434;2022-08-19T14:43:45;18.00;99.90
15676;DHT22;7938;47.666;9.434;2022-08-19T14:46:16;18.00;99.90
15676;DHT22;7938;47.666;9.434;2022-08-19T14:48:45;18.00;99.90
15676;DHT22;7938;47.666;9.434;2022-08-19T14:51:12;18.00;99.90
15676;DHT22;7938;47.666;9.434;2022-08-19T14:53:40;17.90;99.90
15676;DHT22;7938;47.666;9.434;2022-08-19T14:56:09;17.90;99.90
15676;DHT22;7938;47.666;9.434;2022-08-19T14:58:36;18.00;99.90
15676;DHT22;7938;47.666;9.434;2022-08-19T15:01:06;17.90;99.90
15676;DHT22;7938;47.666;9.434;2022-08-19T15:03:35;18.00;99.90
15676;DHT22;7938;47.666;9.434;2022-08-19T15:06:03;18.00;99.90
15676;DHT22;7938;47.666;9.434;2022-08-19T15:08:33;18.00;99.90
15676;DHT22;7938;47.666;9.434;2022-08-19T15:11:00;18.00;99.90
15676;DHT22;7938;47.666;9.434;2022-08-19T15:13:28;18.00;99.90
15676;DHT22;7938;47.666;9.434;2022-08-19T15:15:56;18.00;99.90
15676;DHT22;7938;47.666;9.434;2022-08-19T15:18:23;17.90;99.90
15676;DHT22;7938;47.666;9.434;2022-08-19T15:20:51;17.90;99.90
15676;DHT22;7938;47.666;9.434;2022-08-19T15:23:19;17.90;99.90
15676;DHT22;7938;47.666;9.434;2022-08-19T15:25:46;17.90;99.90
15676;DHT22;7938;47.666;9.434;2022-08-19T15:28:14;17.90;99.90
15676;DHT22;7938;47.666;9.434;2022-08-19T15:30:42;17.90;99.90
15676;DHT22;7938;47.666;9.434;2022-08-19T15:33:10;17.90;99.90
15676;DHT22;7938;47.666;9.434;2022-08-19T15:35:39;17.90;99.90
15676;DHT22;7938;47.666;9.434;2022-08-19T15:38:09;17.90;99.90
15676;DHT22;7938;47.666;9.434;2022-08-19T15:40:39;18.90;99.90
15676;DHT22;7938;47.666;9.434;2022-08-19T15:43:06;17.90;99.90
15676;DHT22;7938;47.666;9.434;2022-08-19T15:45:33;17.90;99.90
15676;DHT22;7938;47.666;9.434;2022-08-19T15:48:02;17.90;99.90
15676;DHT22;7938;47.666;9.434;2022-08-19T15:50:30;17.90;99.90
15676;DHT22;7938;47.666;9.434;2022-08-19T15:53:03;18.00;99.90
15676;DHT22;7938;47.666;9.434;2022-08-19T15:55:33;17.90;99.90
15676;DHT22;7938;47.666;9.434;2022-08-19T15:58:02;17.90;99.90
15676;DHT22;7938;47.666;9.434;2022-08-19T16:00:46;17.90;99.90
15676;DHT22;7938;47.666;9.434;2022-08-19T16:03:31;17.90;99.90
15676;DHT22;7938;47.666;9.434;2022-08-19T16:06:15;17.80;99.90
15676;DHT22;7938;47.666;9.434;2022-08-19T16:08:57;17.80;99.90
15676;DHT22;7938;47.666;9.434;2022-08-19T16:11:30;17.80;99.90
15676;DHT22;7938;47.666;9.434;2022-08-19T16:13:59;17.80;99.90
15676;DHT22;7938;47.666;9.434;2022-08-19T16:16:29;17.80;99.90
15676;DHT22;7938;47.666;9.434;2022-08-19T16:18:57;17.80;99.90
15676;DHT22;7938;47.666;9.434;2022-08-19T16:21:27;17.80;99.90
15676;DHT22;7938;47.666;9.434;2022-08-19T16:23:58;17.80;99.90
15676;DHT22;7938;47.666;9.434;2022-08-19T16:26:27;17.90;99.90
15676;DHT22;7938;47.666;9.434;2022-08-19T16:28:55;17.90;99.90
15676;DHT22;7938;47.666;9.434;2022-08-19T16:31:23;17.90;99.90
15676;DHT22;7938;47.666;9.434;2022-08-19T16:33:50;17.90;99.90
15676;DHT22;7938;47.666;9.434;2022-08-19T16:36:17;17.90;99.90
15676;DHT22;7938;47.666;9.434;2022-08-19T16:38:45;17.80;99.90
15676;DHT22;7938;47.666;9.434;2022-08-19T16:41:13;17.80;99.90
15676;DHT22;7938;47.666;9.434;2022-08-19T16:43:45;17.80;99.90
15676;DHT22;7938;47.666;9.434;2022-08-19T16:46:14;17.90;99.90
15676;DHT22;7938;47.666;9.434;2022-08-19T16:48:40;17.90;99.90
15676;DHT22;7938;47.666;9.434;2022-08-19T16:51:10;17.90;99.90
15676;DHT22;7938;47.666;9.434;2022-08-19T16:53:38;17.80;99.90
15676;DHT22;7938;47.666;9.434;2022-08-19T16:56:06;17.90;99.90
15676;DHT22;7938;47.666;9.434;2022-08-19T16:58:34;17.90;99.90
15676;DHT22;7938;47.666;9.434;2022-08-19T17:01:05;17.90;99.90
15676;DHT22;7938;47.666;9.434;2022-08-19T17:03:33;17.90;99.90
15676;DHT22;7938;47.666;9.434;2022-08-19T17:06:00;17.90;99.90
15676;DHT22;7938;47.666;9.434;2022-08-19T17:08:29;17.90;99.90
15676;DHT22;7938;47.666;9.434;2022-08-19T17:10:58;17.90;99.90
15676;DHT22;7938;47.666;9.434;2022-08-19T17:13:28;17.90;99.90
15676;DHT22;7938;47.666;9.434;2022-08-19T17:15:55;17.90;99.90
15676;DHT22;7938;47.666;9.434;2022-08-19T17:18:30;17.90;99.90
15676;DHT22;7938;47.666;9.434;2022-08-19T17:20:58;17.90;99.90
15676;DHT22;7938;47.666;9.434;2022-08-19T17:23:26;17.90;99.90
15676;DHT22;7938;47.666;9.434;2022-08-19T17:25:53;17.90;99.90
15676;DHT22;7938;47.666;9.434;2022-08-19T17:28:23;18.50;99.90
15676;DHT22;7938;47.666;9.434;2022-08-19T17:30:50;17.90;99.90
15676;DHT22;7938;47.666;9.434;2022-08-19T17:33:17;17.90;99.90
15676;DHT22;7938;47.666;9.434;2022-08-19T17:35:46;17.90;99.90
15676;DHT22;7938;47.666;9.434;2022-08-19T17:38:15;17.80;99.90
15676;DHT22;7938;47.666;9.434;2022-08-19T17:40:43;17.80;99.90
15676;DHT22;7938;47.666;9.434;2022-08-19T17:43:12;17.80;99.90
15676;DHT22;7938;47.666;9.434;2022-08-19T17:45:40;17.80;99.90
15676;DHT22;7938;47.666;9.434;2022-08-19T17:48:08;17.80;99.90
15676;DHT22;7938;47.666;9.434;2022-08-19T17:50:36;17.70;99.90
15676;DHT22;7938;47.666;9.434;2022-08-19T17:53:05;17.70;99.90
15676;DHT22;7938;47.666;9.434;2022-08-19T17:55:32;17.70;99.90
15676;DHT22;7938;47.666;9.434;2022-08-19T17:58:03;17.70;99.90
15676;DHT22;7938;47.666;9.434;2022-08-19T18:00:31;17.60;99.90
15676;DHT22;7938;47.666;9.434;2022-08-19T18:03:03;17.60;99.90
15676;DHT22;7938;47.666;9.434;2022-08-19T18:05:32;18.20;99.90
15676;DHT22;7938;47.666;9.434;2022-08-19T18:08:00;17.60;99.90
15676;DHT22;7938;47.666;9.434;2022-08-19T18:10:31;17.60;99.90
15676;DHT22;7938;47.666;9.434;2022-08-19T18:12:58;17.60;99.90
15676;DHT22;7938;47.666;9.434;2022-08-19T18:15:25;17.60;99.90
15676;DHT22;7938;47.666;9.434;2022-08-19T18:17:53;17.60;99.90
15676;DHT22;7938;47.666;9.434;2022-08-19T18:22:48;17.60;99.90
15676;DHT22;7938;47.666;9.434;2022-08-19T18:25:18;17.60;99.90
15676;DHT22;7938;47.666;9.434;2022-08-19T18:27:48;17.60;99.90
15676;DHT22;7938;47.666;9.434;2022-08-19T18:30:15;17.60;99.90
15676;DHT22;7938;47.666;9.434;2022-08-19T18:32:43;17.50;99.90
15676;DHT22;7938;47.666;9.434;2022-08-19T18:35:16;17.50;99.90
15676;DHT22;7938;47.666;9.434;2022-08-19T18:37:44;17.50;99.90
15676;DHT22;7938;47.666;9.434;2022-08-19T18:40:13;17.50;99.90
15676;DHT22;7938;47.666;9.434;2022-08-19T18:43:00;17.50;99.90
15676;DHT22;7938;47.666;9.434;2022-08-19T18:45:42;17.50;99.90
15676;DHT22;7938;47.666;9.434;2022-08-19T18:48:30;17.50;99.90
15676;DHT22;7938;47.666;9.434;2022-08-19T18:51:16;17.50;99.90
15676;DHT22;7938;47.666;9.434;2022-08-19T18:53:45;17.50;99.90
15676;DHT22;7938;47.666;9.434;2022-08-19T18:56:14;17.40;99.90
15676;DHT22;7938;47.666;9.434;2022-08-19T18:58:43;17.40;99.90
15676;DHT22;7938;47.666;9.434;2022-08-19T19:01:13;18.10;99.90
15676;DHT22;7938;47.666;9.434;2022-08-19T19:03:44;17.40;99.90
15676;DHT22;7938;47.666;9.434;2022-08-19T19:06:14;17.40;99.90
15676;DHT22;7938;47.666;9.434;2022-08-19T19:08:43;17.40;99.90
15676;DHT22;7938;47.666;9.434;2022-08-19T19:11:10;17.40;99.90
15676;DHT22;7938;47.666;9.434;2022-08-19T19:13:37;17.40;99.90
15676;DHT22;7938;47.666;9.434;2022-08-19T19:16:07;17.40;99.90
15676;DHT22;7938;47.666;9.434;2022-08-19T19:18:36;17.40;99.90
15676;DHT22;7938;47.666;9.434;2022-08-19T19:21:03;17.40;99.90
15676;DHT22;7938;47.666;9.434;2022-08-19T19:23:30;17.30;99.90
15676;DHT22;7938;47.666;9.434;2022-08-19T19:25:58;17.30;99.90
15676;DHT22;7938;47.666;9.434;2022-08-19T19:28:25;17.40;99.90
15676;DHT22;7938;47.666;9.434;2022-08-19T19:30:54;17.40;99.90
15676;DHT22;7938;47.666;9.434;2022-08-19T19:33:24;17.40;99.90
15676;DHT22;7938;47.666;9.434;2022-08-19T19:35:51;17.40;99.90
15676;DHT22;7938;47.666;9.434;2022-08-19T19:38:18;17.30;99.90
15676;DHT22;7938;47.666;9.434;2022-08-19T19:40:45;17.40;99.90
15676;DHT22;7938;47.666;9.434;2022-08-19T19:43:12;17.30;99.90
15676;DHT22;7938;47.666;9.434;2022-08-19T19:45:42;17.30;99.90
15676;DHT22;7938;47.666;9.434;2022-08-19T19:48:09;17.30;99.90
15676;DHT22;7938;47.666;9.434;2022-08-19T19:50:42;17.30;99.90
15676;DHT22;7938;47.666;9.434;2022-08-19T19:53:10;17.30;99.90
15676;DHT22;7938;47.666;9.434;2022-08-19T19:55:40;17.30;99.90
15676;DHT22;7938;47.666;9.434;2022-08-19T19:58:07;17.30;99.90
15676;DHT22;7938;47.666;9.434;2022-08-19T20:00:34;17.20;99.90